createdAt,value
2023-04-22T00:02:14.772Z,2.50
2023-04-22T00:04:41.852Z,2.63
2023-04-22T00:07:08.957Z,2.55
2023-04-22T00:09:36.187Z,2.60
2023-04-22T00:12:03.055Z,2.65
2023-04-22T00:14:29.736Z,2.70
2023-04-22T00:16:56.626Z,2.40
2023-04-22T00:19:23.525Z,2.53
2023-04-22T00:21:50.592Z,2.47
2023-04-22T00:24:17.379Z,2.28
2023-04-22T00:26:44.054Z,2.58
2023-04-22T00:29:10.685Z,2.42
2023-04-22T00:31:37.429Z,2.47
2023-04-22T00:34:04.103Z,2.70
2023-04-22T00:36:31.534Z,2.85
2023-04-22T00:38:58.237Z,2.65
2023-04-22T00:41:24.931Z,2.60
2023-04-22T00:43:53.515Z,2.88
2023-04-22T00:46:20.858Z,2.60
2023-04-22T00:48:47.588Z,2.50
2023-04-22T00:51:14.275Z,2.80
2023-04-22T00:53:40.894Z,2.88
2023-04-22T00:56:07.882Z,2.53
2023-04-22T00:58:34.637Z,2.60
2023-04-22T01:01:01.368Z,2.80
2023-04-22T01:03:30.774Z,2.70
2023-04-22T01:05:58.349Z,2.95
2023-04-22T01:08:28.563Z,2.72
2023-04-22T01:10:56.626Z,2.78
2023-04-22T01:13:24.185Z,2.80
2023-04-22T01:15:51.907Z,2.80
2023-04-22T01:18:19.051Z,2.60
2023-04-22T01:20:45.725Z,2.72
2023-04-22T01:23:22.166Z,2.75
2023-04-22T01:25:49.632Z,2.55
2023-04-22T01:28:17.322Z,2.80
2023-04-22T01:30:44.246Z,2.88
2023-04-22T01:33:11.705Z,2.95
2023-04-22T01:35:40.002Z,3.00
2023-04-22T01:38:08.605Z,2.85
2023-04-22T01:40:35.545Z,2.80
2023-04-22T01:43:03.041Z,2.70
2023-04-22T01:45:30.047Z,2.83
2023-04-22T01:47:57.035Z,2.58
2023-04-22T01:50:23.952Z,2.60
2023-04-22T01:52:50.963Z,2.70
2023-04-22T01:55:17.681Z,2.80
2023-04-22T01:57:44.466Z,2.80
2023-04-22T02:00:11.910Z,2.70
2023-04-22T02:02:46.083Z,2.80
2023-04-22T02:05:12.891Z,2.70
2023-04-22T02:07:39.595Z,2.72
2023-04-22T02:10:07.608Z,2.50
2023-04-22T02:12:34.245Z,2.55
2023-04-22T02:15:00.966Z,2.42
2023-04-22T02:17:27.894Z,2.40
2023-04-22T02:19:54.792Z,2.42
2023-04-22T02:22:23.222Z,2.50
2023-04-22T02:24:51.137Z,2.70
2023-04-22T02:27:17.809Z,2.80
2023-04-22T02:29:47.360Z,2.70
2023-04-22T02:32:17.397Z,2.67
2023-04-22T02:34:44.118Z,2.75
2023-04-22T02:37:10.808Z,2.63
2023-04-22T02:39:37.852Z,2.70
2023-04-22T02:42:05.033Z,2.70
2023-04-22T02:44:31.640Z,2.60
2023-04-22T02:46:58.518Z,2.92
2023-04-22T02:49:25.417Z,2.70
2023-04-22T02:51:52.967Z,2.70
2023-04-22T02:54:19.681Z,2.55
2023-04-22T02:56:47.867Z,2.80
2023-04-22T02:59:14.786Z,2.70
2023-04-22T03:01:41.575Z,2.70
2023-04-22T03:04:14.346Z,2.92
2023-04-22T03:06:41.458Z,2.80
2023-04-22T03:09:08.665Z,2.63
2023-04-22T03:11:35.404Z,2.92
2023-04-22T03:14:03.298Z,2.95
2023-04-22T03:16:30.273Z,2.75
2023-04-22T03:18:58.953Z,2.67
2023-04-22T03:21:25.642Z,3.10
2023-04-22T03:23:53.041Z,2.83
2023-04-22T03:26:21.335Z,2.83
2023-04-22T03:28:48.920Z,2.80
2023-04-22T03:31:15.565Z,2.90
2023-04-22T03:33:42.436Z,3.10
2023-04-22T03:36:18.288Z,3.33
2023-04-22T03:38:45.157Z,3.15
2023-04-22T03:41:11.956Z,2.80
2023-04-22T03:43:41.589Z,3.08
2023-04-22T03:46:09.658Z,3.20
2023-04-22T03:48:40.384Z,2.83
2023-04-22T03:51:16.974Z,3.10
2023-04-22T03:53:43.644Z,3.03
2023-04-22T03:56:15.803Z,3.28
2023-04-22T03:58:45.578Z,2.80
2023-04-22T04:01:12.615Z,2.95
2023-04-22T04:03:42.151Z,3.08
2023-04-22T04:06:09.868Z,3.00
2023-04-22T04:08:36.999Z,3.17
2023-04-22T04:11:04.421Z,3.25
2023-04-22T04:13:32.546Z,3.20
2023-04-22T04:16:17.131Z,3.22
2023-04-22T04:18:50.686Z,3.13
2023-04-22T04:21:18.310Z,3.10
2023-04-22T04:23:49.141Z,3.25
2023-04-22T04:26:18.126Z,3.00
2023-04-22T04:28:49.680Z,3.30
2023-04-22T04:31:18.105Z,3.40
2023-04-22T04:33:46.721Z,3.13
2023-04-22T04:36:15.382Z,3.13
2023-04-22T04:38:43.445Z,3.10
2023-04-22T04:41:10.738Z,3.00
2023-04-22T04:43:38.897Z,2.95
2023-04-22T04:46:21.462Z,3.00
2023-04-22T04:48:48.781Z,3.25
2023-04-22T04:51:18.158Z,2.80
2023-04-22T04:53:51.939Z,3.05
2023-04-22T04:56:19.311Z,2.92
2023-04-22T04:58:46.956Z,2.90
2023-04-22T05:01:26.129Z,2.90
2023-04-22T05:03:55.779Z,2.90
2023-04-22T05:06:22.755Z,2.70
2023-04-22T05:08:54.622Z,3.00
2023-04-22T05:11:21.541Z,2.92
2023-04-22T05:13:50.748Z,2.72
2023-04-22T05:16:24.227Z,2.90
2023-04-22T05:18:51.062Z,2.75
2023-04-22T05:21:18.755Z,2.92
2023-04-22T05:23:45.891Z,2.92
2023-04-22T05:26:13.863Z,2.88
2023-04-22T05:28:42.554Z,2.75
2023-04-22T05:31:09.417Z,2.90
2023-04-22T05:33:37.262Z,2.95
2023-04-22T05:36:06.220Z,3.10
2023-04-22T05:38:33.016Z,3.10
2023-04-22T05:41:00.482Z,3.28
2023-04-22T05:43:27.389Z,3.03
2023-04-22T05:46:04.368Z,3.08
2023-04-22T05:48:33.591Z,3.20
2023-04-22T05:51:04.026Z,3.22
2023-04-22T05:53:31.023Z,3.00
2023-04-22T05:56:00.157Z,3.08
2023-04-22T05:58:26.878Z,3.10
2023-04-22T06:00:54.875Z,3.30
2023-04-22T06:03:53.052Z,3.08
2023-04-22T06:06:20.393Z,3.28
2023-04-22T06:08:47.493Z,3.17
2023-04-22T06:11:14.144Z,3.20
2023-04-22T06:13:40.840Z,3.08
2023-04-22T06:16:10.704Z,3.10
2023-04-22T06:18:38.326Z,3.28
2023-04-22T06:21:09.676Z,3.80
2023-04-22T06:23:37.164Z,3.65
2023-04-22T06:26:04.698Z,4.00
2023-04-22T06:28:31.920Z,3.97
2023-04-22T06:31:02.480Z,3.88
2023-04-22T06:33:30.130Z,4.13
2023-04-22T06:35:56.915Z,4.03
2023-04-22T06:38:23.769Z,3.97
2023-04-22T06:41:09.252Z,3.90
2023-04-22T06:43:39.254Z,4.32
2023-04-22T06:46:09.188Z,4.43
2023-04-22T06:48:58.781Z,4.20
2023-04-22T06:51:31.968Z,4.95
2023-04-22T06:53:59.040Z,4.32
2023-04-22T06:56:25.792Z,4.90
2023-04-22T06:58:52.571Z,5.03
2023-04-22T07:01:19.586Z,4.78
2023-04-22T07:03:47.156Z,5.20
2023-04-22T07:06:14.988Z,4.97
2023-04-22T07:08:41.973Z,5.07
2023-04-22T07:11:10.649Z,5.10
2023-04-22T07:13:47.802Z,5.05
2023-04-22T07:16:14.489Z,5.20
2023-04-22T07:18:41.133Z,4.78
2023-04-22T07:21:07.751Z,4.78
2023-04-22T07:23:34.408Z,5.50
2023-04-22T07:26:01.179Z,5.35
2023-04-22T07:28:27.906Z,5.22
2023-04-22T07:30:54.620Z,5.32
2023-04-22T07:33:21.341Z,5.18
2023-04-22T07:35:48.423Z,5.53
2023-04-22T07:38:15.234Z,5.00
2023-04-22T07:40:41.949Z,5.18
2023-04-22T07:43:08.663Z,4.90
2023-04-22T07:45:35.507Z,4.88
2023-04-22T07:48:02.238Z,5.05
2023-04-22T07:50:29.056Z,5.10
2023-04-22T07:52:55.919Z,4.57
2023-04-22T07:55:22.589Z,4.70
2023-04-22T07:57:49.279Z,4.32
2023-04-22T08:00:16.310Z,4.65
2023-04-22T08:02:44.124Z,4.70
2023-04-22T08:05:11.681Z,4.93
2023-04-22T08:07:38.518Z,5.03
2023-04-22T08:10:06.131Z,5.03
2023-04-22T08:12:32.874Z,4.93
2023-04-22T08:14:59.572Z,4.90
2023-04-22T08:17:26.626Z,5.07
2023-04-22T08:19:53.290Z,5.00
2023-04-22T08:22:20.043Z,4.95
2023-04-22T08:24:46.785Z,5.38
2023-04-22T08:27:13.457Z,5.00
2023-04-22T08:29:40.448Z,4.68
2023-04-22T08:32:07.863Z,5.45
2023-04-22T08:34:34.625Z,5.03
2023-04-22T08:37:01.342Z,4.93
2023-04-22T08:39:28.256Z,4.90
2023-04-22T08:41:56.339Z,4.50
2023-04-22T08:44:23.067Z,4.78
2023-04-22T08:46:50.961Z,4.50
2023-04-22T08:49:19.059Z,4.55
2023-04-22T08:51:46.199Z,5.05
2023-04-22T08:54:12.893Z,4.60
2023-04-22T08:56:44.743Z,5.00
2023-04-22T08:59:12.695Z,4.28
2023-04-22T09:01:41.086Z,4.63
2023-04-22T09:04:10.020Z,5.05
2023-04-22T09:06:38.094Z,5.13
2023-04-22T09:09:04.808Z,4.60
2023-04-22T09:11:33.815Z,4.55
2023-04-22T09:14:00.568Z,4.95
2023-04-22T09:16:30.920Z,5.00
2023-04-22T09:18:58.052Z,4.90
2023-04-22T09:21:28.133Z,4.35
2023-04-22T09:23:56.338Z,4.40
2023-04-22T09:26:24.467Z,4.43
2023-04-22T09:28:56.195Z,4.18
2023-04-22T09:31:23.351Z,4.20
2023-04-22T09:33:55.660Z,4.30
2023-04-22T09:36:29.377Z,4.15
2023-04-22T09:39:01.668Z,4.03
2023-04-22T09:41:28.615Z,4.22
2023-04-22T09:43:57.305Z,4.05
2023-04-22T09:46:25.879Z,4.10
2023-04-22T09:48:55.075Z,3.60
2023-04-22T09:51:22.166Z,4.10
2023-04-22T09:54:10.848Z,4.05
2023-04-22T09:56:43.670Z,3.97
2023-04-22T09:59:10.809Z,3.50
2023-04-22T10:01:41.630Z,3.80
2023-04-22T10:04:15.013Z,3.80
2023-04-22T10:06:42.442Z,3.53
2023-04-22T10:09:09.662Z,4.32
2023-04-22T10:11:37.640Z,3.97
2023-04-22T10:14:05.425Z,3.80
2023-04-22T10:16:33.545Z,3.97
2023-04-22T10:19:02.153Z,3.80
2023-04-22T10:21:29.924Z,3.75
2023-04-22T10:23:58.689Z,4.10
2023-04-22T10:26:44.138Z,4.18
2023-04-22T10:29:17.210Z,3.78
2023-04-22T10:31:52.250Z,3.90
2023-04-22T10:34:18.973Z,3.75
2023-04-22T10:36:58.847Z,4.15
2023-04-22T10:39:27.398Z,3.78
2023-04-22T10:42:07.583Z,4.05
2023-04-22T10:44:51.332Z,4.13
2023-04-22T10:47:32.267Z,3.95
2023-04-22T10:50:14.249Z,3.85
2023-04-22T10:52:43.061Z,3.47
2023-04-22T10:55:10.005Z,3.38
2023-04-22T10:57:44.777Z,3.47
2023-04-22T11:02:53.362Z,3.28
2023-04-22T11:05:20.555Z,3.83
2023-04-22T11:07:49.618Z,3.65
2023-04-22T11:10:43.811Z,3.47
2023-04-22T11:13:14.044Z,3.60
2023-04-22T11:15:42.263Z,3.60
2023-04-22T11:18:25.192Z,3.70
2023-04-22T11:20:53.425Z,4.07
2023-04-22T11:23:22.560Z,4.10
2023-04-22T11:25:54.900Z,3.70
2023-04-22T11:28:22.923Z,3.78
2023-04-22T11:30:49.744Z,3.75
2023-04-22T11:33:17.201Z,3.90
2023-04-22T11:35:43.923Z,4.20
2023-04-22T11:38:10.619Z,3.67
2023-04-22T11:40:44.840Z,3.47
2023-04-22T11:43:13.041Z,4.25
2023-04-22T11:45:40.054Z,3.45
2023-04-22T11:48:08.344Z,3.58
2023-04-22T11:50:40.302Z,3.80
2023-04-22T11:53:17.179Z,4.25
2023-04-22T11:55:45.622Z,3.80
2023-04-22T11:58:27.150Z,3.70
2023-04-22T12:00:56.092Z,3.75
2023-04-22T12:03:28.168Z,3.47
2023-04-22T12:05:57.400Z,3.80
2023-04-22T12:08:26.229Z,3.65
2023-04-22T12:10:57.729Z,3.72
2023-04-22T12:13:30.383Z,3.92
2023-04-22T12:16:12.145Z,4.07
2023-04-22T12:18:53.122Z,4.00
2023-04-22T12:21:22.219Z,3.63
2023-04-22T12:23:52.265Z,3.60
2023-04-22T12:26:23.722Z,4.00
2023-04-22T12:28:52.848Z,4.03
2023-04-22T12:31:19.728Z,4.30
2023-04-22T12:33:46.881Z,3.85
2023-04-22T12:36:13.874Z,4.10
2023-04-22T12:38:40.691Z,3.72
2023-04-22T12:41:07.718Z,3.90
2023-04-22T12:43:36.812Z,4.03
2023-04-22T12:46:04.559Z,3.90
2023-04-22T12:48:31.715Z,4.35
2023-04-22T12:50:58.821Z,3.88
2023-04-22T12:53:27.351Z,3.60
2023-04-22T12:55:54.171Z,3.92
2023-04-22T12:58:20.791Z,3.47
2023-04-22T13:00:47.559Z,3.63
2023-04-22T13:03:14.282Z,3.70
2023-04-22T13:05:41.003Z,3.72
2023-04-22T13:08:08.347Z,3.22
2023-04-22T13:10:35.797Z,3.80
2023-04-22T13:13:17.502Z,3.10
2023-04-22T13:15:47.373Z,3.50
2023-04-22T13:18:15.403Z,3.40
2023-04-22T13:20:42.771Z,3.45
2023-04-22T13:23:10.560Z,4.43
2023-04-22T13:25:37.363Z,4.45
2023-04-22T13:28:04.161Z,3.92
2023-04-22T13:30:31.230Z,3.92
2023-04-22T13:32:57.875Z,4.53
2023-04-22T13:35:24.852Z,4.38
2023-04-22T13:37:51.813Z,4.80
2023-04-22T13:40:18.936Z,4.45
2023-04-22T13:42:45.637Z,4.53
2023-04-22T13:45:12.357Z,4.43
2023-04-22T13:47:39.122Z,4.57
2023-04-22T13:50:06.536Z,4.45
2023-04-22T13:52:33.968Z,4.63
2023-04-22T13:55:02.440Z,4.53
2023-04-22T13:57:29.108Z,4.75
2023-04-22T13:59:55.847Z,4.40
2023-04-22T14:02:22.728Z,4.80
2023-04-22T14:04:49.438Z,4.30
2023-04-22T14:07:16.072Z,4.90
2023-04-22T14:09:43.050Z,4.63
2023-04-22T14:12:12.278Z,4.18
2023-04-22T14:14:38.900Z,4.32
2023-04-22T14:17:05.658Z,4.28
2023-04-22T14:19:32.451Z,4.45
2023-04-22T14:21:59.156Z,4.05
2023-04-22T14:24:26.076Z,4.18
2023-04-22T14:26:52.969Z,4.45
2023-04-22T14:29:19.743Z,4.57
2023-04-22T14:31:46.546Z,4.10
2023-04-22T14:34:13.276Z,4.75
2023-04-22T14:36:39.962Z,4.60
2023-04-22T14:39:06.672Z,4.47
2023-04-22T14:41:33.306Z,4.57
2023-04-22T14:44:00.977Z,4.30
2023-04-22T14:46:27.660Z,4.30
2023-04-22T14:48:54.703Z,4.07
2023-04-22T14:51:21.395Z,3.85
2023-04-22T14:53:48.079Z,4.13
2023-04-22T14:56:14.773Z,4.10
2023-04-22T14:58:41.388Z,4.07
2023-04-22T15:01:08.229Z,4.00
2023-04-22T15:03:36.090Z,4.20
2023-04-22T15:06:03.143Z,4.00
2023-04-22T15:08:29.885Z,4.40
2023-04-22T15:10:56.620Z,3.97
2023-04-22T15:13:23.386Z,4.03
2023-04-22T15:15:50.071Z,3.90
2023-04-22T15:18:16.753Z,3.95
2023-04-22T15:20:43.470Z,3.58
2023-04-22T15:23:10.380Z,3.97
2023-04-22T15:25:37.054Z,3.63
2023-04-22T15:28:04.200Z,3.90
2023-04-22T15:30:30.809Z,3.70
2023-04-22T15:32:57.698Z,4.05
2023-04-22T15:35:24.445Z,3.75
2023-04-22T15:37:51.119Z,3.88
2023-04-22T15:40:17.765Z,3.97
2023-04-22T15:42:44.407Z,4.00
2023-04-22T15:45:11.444Z,4.00
2023-04-22T15:47:38.385Z,3.55
2023-04-22T15:50:09.263Z,3.80
2023-04-22T15:52:37.807Z,3.50
2023-04-22T15:55:06.079Z,3.42
2023-04-22T15:57:35.417Z,3.70
2023-04-22T16:00:11.964Z,3.70
2023-04-22T16:02:43.711Z,3.33
2023-04-22T16:05:11.910Z,3.70
2023-04-22T16:07:39.127Z,3.30
2023-04-22T16:10:06.634Z,3.50
2023-04-22T16:12:34.434Z,3.42
2023-04-22T16:15:01.591Z,3.50
2023-04-22T16:17:28.508Z,3.50
2023-04-22T16:19:55.364Z,3.63
2023-04-22T16:22:22.028Z,3.38
2023-04-22T16:24:48.671Z,3.70
2023-04-22T16:27:17.352Z,3.38
2023-04-22T16:29:44.167Z,3.47
2023-04-22T16:32:11.447Z,3.35
2023-04-22T16:34:38.385Z,3.00
2023-04-22T16:37:06.052Z,3.60
2023-04-22T16:39:32.948Z,3.00
2023-04-22T16:41:59.822Z,3.10
2023-04-22T16:44:26.465Z,3.45
2023-04-22T16:46:53.105Z,3.10
2023-04-22T16:49:19.820Z,3.08
2023-04-22T16:51:46.607Z,3.22
2023-04-22T16:54:13.211Z,3.08
2023-04-22T16:56:40.379Z,3.08
2023-04-22T16:59:06.982Z,3.22
2023-04-22T17:01:33.706Z,3.17
2023-04-22T17:04:00.895Z,3.20
2023-04-22T17:06:28.369Z,3.08
2023-04-22T17:08:55.148Z,3.08
2023-04-22T17:11:22.113Z,2.85
2023-04-22T17:13:48.789Z,3.00
2023-04-22T17:16:15.706Z,3.08
2023-04-22T17:18:42.627Z,2.80
2023-04-22T17:21:09.571Z,2.90
2023-04-22T17:23:36.463Z,3.00
2023-04-22T17:26:03.141Z,3.30
2023-04-22T17:28:29.800Z,3.20
2023-04-22T17:30:56.614Z,2.90
2023-04-22T17:33:23.282Z,3.20
2023-04-22T17:35:49.878Z,3.70
2023-04-22T17:38:16.547Z,3.75
2023-04-22T17:40:45.848Z,3.90
2023-04-22T17:43:12.477Z,4.03
2023-04-22T17:45:39.170Z,3.50
2023-04-22T17:48:05.864Z,2.90
2023-04-22T17:50:32.467Z,3.45
2023-04-22T17:52:59.076Z,3.30
2023-04-22T17:55:25.794Z,3.38
2023-04-22T17:57:52.390Z,3.50
2023-04-22T18:00:19.196Z,3.28
2023-04-22T18:02:46.325Z,3.80
2023-04-22T18:05:15.905Z,2.80
2023-04-22T18:07:42.517Z,3.05
2023-04-22T18:10:10.205Z,3.22
2023-04-22T18:12:36.879Z,2.67
2023-04-22T18:15:04.884Z,2.92
2023-04-22T18:17:31.820Z,2.80
2023-04-22T18:20:09.717Z,3.08
2023-04-22T18:22:41.714Z,2.80
2023-04-22T18:25:08.482Z,3.08
2023-04-22T18:27:35.291Z,2.92
2023-04-22T18:30:01.991Z,3.33
2023-04-22T18:32:28.895Z,3.38
2023-04-22T18:34:55.703Z,3.25
2023-04-22T18:37:22.404Z,3.00
2023-04-22T18:39:48.990Z,3.10
2023-04-22T18:42:15.676Z,2.75
2023-04-22T18:44:42.692Z,2.78
2023-04-22T18:47:09.606Z,3.10
2023-04-22T18:49:36.486Z,3.00
2023-04-22T18:52:03.398Z,2.97
2023-04-22T18:54:30.794Z,3.28
2023-04-22T18:56:58.313Z,2.85
2023-04-22T18:59:25.083Z,2.88
2023-04-22T19:01:51.880Z,2.80
2023-04-22T19:04:18.672Z,2.78
2023-04-22T19:06:45.629Z,2.45
2023-04-22T19:09:12.407Z,2.88
2023-04-22T19:11:39.136Z,2.85
2023-04-22T19:14:05.960Z,3.30
2023-04-22T19:16:32.716Z,2.80
2023-04-22T19:18:59.344Z,2.83
2023-04-22T19:21:27.047Z,3.00
2023-04-22T19:23:53.833Z,3.15
2023-04-22T19:26:21.976Z,2.60
2023-04-22T19:28:49.023Z,2.95
2023-04-22T19:31:19.736Z,2.90
2023-04-22T19:33:46.430Z,2.60
2023-04-22T19:36:13.108Z,2.83
2023-04-22T19:38:39.925Z,2.60
2023-04-22T19:41:08.847Z,2.88
2023-04-22T19:43:37.878Z,2.80
2023-04-22T19:46:04.929Z,2.58
2023-04-22T19:48:32.074Z,2.80
2023-04-22T19:50:59.202Z,2.70
2023-04-22T19:53:26.081Z,2.70
2023-04-22T19:55:52.836Z,2.78
2023-04-22T19:58:19.829Z,2.95
2023-04-22T20:00:46.818Z,3.10
2023-04-22T20:03:14.632Z,2.97
2023-04-22T20:05:43.494Z,2.88
2023-04-22T20:08:10.363Z,3.17
2023-04-22T20:10:37.168Z,3.03
2023-04-22T20:13:05.520Z,3.25
2023-04-22T20:15:33.042Z,2.80
2023-04-22T20:18:00.142Z,2.90
2023-04-22T20:20:27.559Z,3.10
2023-04-22T20:22:54.916Z,3.00
2023-04-22T20:25:23.132Z,3.30
2023-04-22T20:27:49.965Z,3.30
2023-04-22T20:30:16.998Z,2.92
2023-04-22T20:32:43.758Z,2.88
2023-04-22T20:35:12.364Z,3.17
2023-04-22T20:37:39.844Z,3.00
2023-04-22T20:40:08.347Z,2.90
2023-04-22T20:42:36.830Z,3.03
2023-04-22T20:45:07.480Z,3.30
2023-04-22T20:47:35.853Z,2.90
2023-04-22T20:50:02.549Z,3.08
2023-04-22T20:52:29.262Z,3.10
2023-04-22T20:54:56.569Z,2.90
2023-04-22T20:57:23.760Z,2.80
2023-04-22T20:59:50.748Z,2.95
2023-04-22T21:02:18.513Z,3.00
2023-04-22T21:04:45.524Z,3.15
2023-04-22T21:07:14.193Z,2.78
2023-04-22T21:09:41.616Z,2.85
2023-04-22T21:12:10.477Z,3.10
2023-04-22T21:14:43.196Z,2.95
2023-04-22T21:17:19.690Z,3.08
2023-04-22T21:19:49.558Z,3.10
2023-04-22T21:22:25.398Z,3.20
2023-04-22T21:24:52.835Z,3.33
2023-04-22T21:27:21.702Z,3.47
2023-04-22T21:29:49.397Z,2.88
2023-04-22T21:32:16.692Z,3.05
2023-04-22T21:34:44.198Z,3.53
2023-04-22T21:37:11.523Z,3.30
2023-04-22T21:39:38.270Z,3.05
2023-04-22T21:42:08.055Z,3.30
2023-04-22T21:44:36.853Z,3.67
2023-04-22T21:47:03.988Z,3.42
2023-04-22T21:49:30.921Z,3.47
2023-04-22T21:51:57.608Z,3.72
2023-04-22T21:54:24.418Z,3.97
2023-04-22T21:56:51.166Z,4.30
2023-04-22T21:59:17.838Z,4.00
2023-04-22T22:01:44.590Z,3.90
2023-04-22T22:04:13.978Z,3.92
2023-04-22T22:06:42.369Z,3.88
2023-04-22T22:09:09.081Z,3.83
2023-04-22T22:11:36.251Z,3.78
2023-04-22T22:14:03.093Z,3.75
2023-04-22T22:16:31.006Z,4.15
2023-04-22T22:18:58.395Z,3.65
2023-04-22T22:21:25.381Z,3.90
2023-04-22T22:23:52.140Z,4.22
2023-04-22T22:26:19.454Z,3.70
2023-04-22T22:28:46.403Z,4.00
2023-04-22T22:31:13.123Z,3.78
2023-04-22T22:33:40.022Z,3.78
2023-04-22T22:36:06.786Z,3.60
2023-04-22T22:38:33.432Z,3.95
2023-04-22T22:41:00.174Z,3.70
2023-04-22T22:43:26.994Z,4.03
2023-04-22T22:45:56.235Z,3.45
2023-04-22T22:48:22.975Z,3.90
2023-04-22T22:50:50.026Z,3.88
2023-04-22T22:53:16.648Z,4.20
2023-04-22T22:55:43.310Z,3.60
2023-04-22T22:58:09.950Z,3.70
2023-04-22T23:00:37.013Z,3.53
2023-04-22T23:03:04.416Z,3.80
2023-04-22T23:05:31.400Z,3.58
2023-04-22T23:07:58.038Z,3.63
2023-04-22T23:10:24.701Z,3.78
2023-04-22T23:12:51.472Z,3.78
2023-04-22T23:15:18.144Z,3.80
2023-04-22T23:17:44.883Z,3.60
2023-04-22T23:20:12.087Z,3.40
2023-04-22T23:22:42.245Z,3.90
2023-04-22T23:25:09.653Z,3.28
2023-04-22T23:27:36.534Z,3.60
2023-04-22T23:30:04.713Z,3.75
2023-04-22T23:32:32.496Z,4.03
2023-04-22T23:35:00.621Z,3.53
2023-04-22T23:37:29.427Z,3.90
2023-04-22T23:39:56.221Z,3.42
2023-04-22T23:42:22.954Z,3.78
2023-04-22T23:44:49.839Z,3.80
2023-04-22T23:47:16.610Z,3.88
2023-04-22T23:49:43.621Z,3.72
2023-04-22T23:52:11.027Z,4.30
2023-04-22T23:54:38.048Z,3.95
2023-04-22T23:57:05.088Z,3.85
2023-04-22T23:59:32.150Z,3.55
